Time;durP1;ratioP1;P1;durP2;ratioP2;P2;SDS_P1;SDS_P2;PMS_P1;PMS_P2;Temp;Humidity;BMP_temperature;BMP_pressure;BME280_temperature;BME280_humidity;BME280_pressure;Samples;Min_cycle;Max_cycle;Signal;HPM_P1;HPM_P2
2022/03/17 00:02:01;;;;;;;2.45;2.10;;;;;;;;;;4967707;28;20029;-51
2022/03/17 00:04:28;;;;;;;2.75;2.03;;;;;;;;;;4967003;28;20065;-52
2022/03/17 00:06:54;;;;;;;2.65;2.05;;;;;;;;;;4966980;28;20031;-51
2022/03/17 00:09:20;;;;;;;3.35;2.00;;;;;;;;;;4966837;28;20106;-52
2022/03/17 00:11:47;;;;;;;3.05;1.80;;;;;;;;;;4966701;28;20114;-49
2022/03/17 00:14:14;;;;;;;2.53;1.67;;;;;;;;;;4966538;28;20026;-52
2022/03/17 00:16:41;;;;;;;1.92;1.60;;;;;;;;;;4966851;28;20118;-53
2022/03/17 00:19:10;;;;;;;3.95;1.90;;;;;;;;;;4979233;28;20027;-51
2022/03/17 00:21:36;;;;;;;1.70;1.60;;;;;;;;;;4976101;28;20034;-52
2022/03/17 00:24:03;;;;;;;3.00;1.70;;;;;;;;;;4986443;28;20054;-50
2022/03/17 00:26:29;;;;;;;1.70;1.42;;;;;;;;;;4984795;28;20030;-50
2022/03/17 00:28:55;;;;;;;3.10;1.73;;;;;;;;;;4975940;28;20054;-51
2022/03/17 00:31:21;;;;;;;2.00;1.77;;;;;;;;;;4985920;28;20072;-51
2022/03/17 00:33:47;;;;;;;3.03;1.70;;;;;;;;;;4986723;28;20038;-52
2022/03/17 00:36:15;;;;;;;1.65;1.55;;;;;;;;;;4985490;28;20029;-51
2022/03/17 00:38:41;;;;;;;2.38;1.70;;;;;;;;;;4986010;28;20101;-50
2022/03/17 00:41:07;;;;;;;1.58;1.27;;;;;;;;;;4984434;28;20022;-51
2022/03/17 00:43:34;;;;;;;2.45;1.40;;;;;;;;;;4984956;28;20042;-52
2022/03/17 00:46:01;;;;;;;1.70;1.48;;;;;;;;;;4979431;28;20109;-52
2022/03/17 00:48:29;;;;;;;1.63;1.50;;;;;;;;;;4986059;28;20030;-52
2022/03/17 00:50:55;;;;;;;2.30;1.55;;;;;;;;;;4986496;28;20081;-52
2022/03/17 00:53:22;;;;;;;2.13;1.42;;;;;;;;;;4985653;28;20026;-53
2022/03/17 00:55:49;;;;;;;1.80;1.33;;;;;;;;;;4983253;28;20373;-52
2022/03/17 00:58:15;;;;;;;2.38;1.75;;;;;;;;;;4967087;28;20058;-52
2022/03/17 01:00:41;;;;;;;2.20;1.63;;;;;;;;;;4970708;28;20022;-49
2022/03/17 01:03:07;;;;;;;2.20;1.35;;;;;;;;;;4999856;28;20084;-53
2022/03/17 01:05:34;;;;;;;2.13;1.23;;;;;;;;;;5005383;28;20479;-53
2022/03/17 01:08:00;;;;;;;1.33;1.20;;;;;;;;;;5005466;28;20042;-51
2022/03/17 01:10:27;;;;;;;1.85;1.33;;;;;;;;;;4984101;28;20041;-52
2022/03/17 01:12:53;;;;;;;1.90;1.48;;;;;;;;;;4966336;28;20027;-53
2022/03/17 01:15:20;;;;;;;1.33;1.20;;;;;;;;;;4966164;28;20039;-53
2022/03/17 01:17:46;;;;;;;1.40;1.20;;;;;;;;;;4965763;28;20143;-53
2022/03/17 01:20:12;;;;;;;2.20;1.30;;;;;;;;;;4966135;28;20109;-51
2022/03/17 01:22:39;;;;;;;2.40;1.50;;;;;;;;;;4965998;28;20094;-49
2022/03/17 01:25:05;;;;;;;3.30;1.67;;;;;;;;;;4966613;28;20030;-51
2022/03/17 01:27:34;;;;;;;3.90;1.75;;;;;;;;;;4966053;28;20851;-51
2022/03/17 01:30:00;;;;;;;2.85;1.80;;;;;;;;;;4966374;28;20042;-53
2022/03/17 01:32:26;;;;;;;2.08;1.70;;;;;;;;;;4980074;28;20465;-53
2022/03/17 01:34:52;;;;;;;2.85;1.90;;;;;;;;;;4966357;28;20532;-51
2022/03/17 01:37:18;;;;;;;2.53;2.00;;;;;;;;;;4966128;28;20069;-50
2022/03/17 01:39:44;;;;;;;2.42;1.75;;;;;;;;;;4966979;28;20050;-49
2022/03/17 01:42:11;;;;;;;2.97;1.92;;;;;;;;;;4966256;28;20502;-51
2022/03/17 01:44:37;;;;;;;2.97;1.92;;;;;;;;;;4966023;28;20507;-52
2022/03/17 01:49:49;;;;;;;2.92;1.80;;;;;;;;;;4966116;28;20093;-52
2022/03/17 01:52:15;;;;;;;2.22;1.92;;;;;;;;;;4979643;28;20050;-50
2022/03/17 01:54:42;;;;;;;3.03;1.92;;;;;;;;;;4985536;28;20098;-52
2022/03/17 01:57:08;;;;;;;2.35;1.85;;;;;;;;;;4985775;28;20487;-52
2022/03/17 01:59:35;;;;;;;2.33;1.90;;;;;;;;;;4970262;28;20053;-52
2022/03/17 02:02:02;;;;;;;3.85;2.45;;;;;;;;;;4971132;28;20416;-52
2022/03/17 02:04:28;;;;;;;3.10;1.98;;;;;;;;;;4989080;28;20030;-50
2022/03/17 02:06:55;;;;;;;3.20;2.10;;;;;;;;;;4989061;28;20038;-52
2022/03/17 02:09:26;;;;;;;5.03;2.10;;;;;;;;;;4989044;28;20088;-52
2022/03/17 02:14:48;;;;;;;3.22;1.75;;;;;;;;;;4989789;28;20724;-53
2022/03/17 02:17:15;;;;;;;3.47;2.08;;;;;;;;;;4989115;28;20045;-51
2022/03/17 02:19:42;;;;;;;2.75;1.77;;;;;;;;;;4986337;28;20034;-50
2022/03/17 02:22:11;;;;;;;2.35;1.65;;;;;;;;;;4988193;28;20142;-52
2022/03/17 02:27:25;;;;;;;2.67;1.73;;;;;;;;;;4987992;28;20041;-52
2022/03/17 02:29:52;;;;;;;2.85;1.70;;;;;;;;;;4988894;28;20089;-52
2022/03/17 02:32:18;;;;;;;2.85;2.05;;;;;;;;;;4987386;28;20402;-52
2022/03/17 02:34:44;;;;;;;2.08;1.60;;;;;;;;;;4988640;28;20050;-52
2022/03/17 02:37:12;;;;;;;2.70;2.00;;;;;;;;;;4988334;28;20034;-51
2022/03/17 02:39:39;;;;;;;2.95;1.80;;;;;;;;;;4988600;28;20022;-52
2022/03/17 02:42:05;;;;;;;2.63;2.10;;;;;;;;;;4988326;28;20080;-52
2022/03/17 02:44:32;;;;;;;4.18;2.17;;;;;;;;;;4988888;28;20583;-50
2022/03/17 02:46:58;;;;;;;2.42;1.63;;;;;;;;;;4988766;28;20548;-52
2022/03/17 02:49:26;;;;;;;4.32;2.15;;;;;;;;;;4988352;28;20186;-52
2022/03/17 02:51:53;;;;;;;2.33;1.90;;;;;;;;;;4987170;28;20117;-53
2022/03/17 02:54:20;;;;;;;4.40;2.35;;;;;;;;;;4987964;28;20034;-51
2022/03/17 02:56:46;;;;;;;2.90;1.88;;;;;;;;;;4988278;28;20023;-53
2022/03/17 02:59:12;;;;;;;3.10;2.00;;;;;;;;;;4988200;28;20026;-51
2022/03/17 03:01:40;;;;;;;2.20;1.83;;;;;;;;;;4986742;28;20571;-51
2022/03/17 03:04:06;;;;;;;2.47;1.55;;;;;;;;;;4988168;28;20417;-49
2022/03/17 03:06:32;;;;;;;1.48;1.35;;;;;;;;;;4988422;28;20134;-52
2022/03/17 03:08:59;;;;;;;2.85;1.92;;;;;;;;;;4988220;28;20037;-52
2022/03/17 03:11:26;;;;;;;3.22;2.22;;;;;;;;;;4987222;28;20111;-51
2022/03/17 03:13:52;;;;;;;2.60;2.10;;;;;;;;;;4987893;28;20088;-51
2022/03/17 03:16:18;;;;;;;3.00;1.92;;;;;;;;;;4987409;28;20421;-51
2022/03/17 03:18:44;;;;;;;4.05;2.05;;;;;;;;;;4987885;28;20033;-52
2022/03/17 03:21:10;;;;;;;1.85;1.70;;;;;;;;;;4986576;28;20342;-52
2022/03/17 03:23:37;;;;;;;2.60;1.92;;;;;;;;;;4969957;28;20034;-52
2022/03/17 03:26:03;;;;;;;3.38;2.13;;;;;;;;;;4987698;28;20027;-52
2022/03/17 03:28:29;;;;;;;2.53;1.95;;;;;;;;;;4987379;28;20034;-52
2022/03/17 03:30:55;;;;;;;2.42;1.77;;;;;;;;;;4987705;28;20030;-52
2022/03/17 03:33:21;;;;;;;2.00;1.80;;;;;;;;;;4985985;28;20042;-51
2022/03/17 03:38:33;;;;;;;2.70;2.08;;;;;;;;;;4987577;28;20104;-52
2022/03/17 03:41:01;;;;;;;2.78;1.80;;;;;;;;;;4988193;28;20449;-52
2022/03/17 03:43:27;;;;;;;2.30;1.98;;;;;;;;;;4986498;28;20120;-53
2022/03/17 03:45:54;;;;;;;3.33;2.38;;;;;;;;;;4986593;28;20695;-52
2022/03/17 03:48:20;;;;;;;2.60;2.05;;;;;;;;;;4986990;28;20022;-51
2022/03/17 03:50:47;;;;;;;2.92;2.38;;;;;;;;;;4986943;28;20161;-52
2022/03/17 03:53:14;;;;;;;3.55;2.20;;;;;;;;;;4968189;28;20565;-52
2022/03/17 03:55:41;;;;;;;4.80;2.50;;;;;;;;;;4987122;28;20224;-50
2022/03/17 03:58:08;;;;;;;3.08;2.22;;;;;;;;;;4987241;28;20034;-52
2022/03/17 04:00:34;;;;;;;4.90;2.70;;;;;;;;;;4986878;28;20073;-52
2022/03/17 04:03:03;;;;;;;4.95;3.08;;;;;;;;;;4985601;28;20034;-52
2022/03/17 04:05:31;;;;;;;4.05;2.97;;;;;;;;;;4986651;28;20382;-53
2022/03/17 04:07:58;;;;;;;4.00;3.10;;;;;;;;;;4986978;28;20029;-52
2022/03/17 04:10:25;;;;;;;4.38;2.72;;;;;;;;;;4986606;28;20032;-53
2022/03/17 04:12:51;;;;;;;3.70;2.90;;;;;;;;;;4986187;28;20169;-52
2022/03/17 04:15:17;;;;;;;4.40;2.78;;;;;;;;;;4985646;28;20034;-52
2022/03/17 04:17:44;;;;;;;4.88;2.88;;;;;;;;;;4967126;28;20023;-51
2022/03/17 04:20:10;;;;;;;4.30;2.55;;;;;;;;;;4980684;28;20112;-53
2022/03/17 04:22:37;;;;;;;3.38;2.70;;;;;;;;;;4986660;28;20030;-50
2022/03/17 04:25:04;;;;;;;3.95;2.78;;;;;;;;;;4984873;28;20243;-52
2022/03/17 04:27:30;;;;;;;3.85;2.83;;;;;;;;;;4986848;28;20029;-52
2022/03/17 04:29:57;;;;;;;3.55;2.58;;;;;;;;;;4985903;28;20034;-52
2022/03/17 04:32:23;;;;;;;3.38;2.35;;;;;;;;;;4986165;28;20022;-51
2022/03/17 04:34:50;;;;;;;4.25;2.80;;;;;;;;;;4986450;28;20030;-49
2022/03/17 04:37:17;;;;;;;4.00;2.53;;;;;;;;;;4986162;28;20486;-51
2022/03/17 04:39:43;;;;;;;3.05;2.75;;;;;;;;;;4986535;28;20018;-50
2022/03/17 04:42:09;;;;;;;4.00;2.72;;;;;;;;;;4985489;28;20040;-50
2022/03/17 04:44:36;;;;;;;5.47;2.70;;;;;;;;;;4986481;28;20038;-52
2022/03/17 04:47:02;;;;;;;3.92;2.88;;;;;;;;;;4986568;28;20027;-52
2022/03/17 04:49:29;;;;;;;4.78;2.65;;;;;;;;;;4986368;28;20032;-52
2022/03/17 04:51:56;;;;;;;3.50;2.75;;;;;;;;;;4985679;28;20484;-52
2022/03/17 04:54:23;;;;;;;4.57;3.15;;;;;;;;;;4985900;28;20030;-53
2022/03/17 04:56:49;;;;;;;5.10;2.95;;;;;;;;;;4968682;28;20034;-51
2022/03/17 04:59:19;;;;;;;4.22;3.25;;;;;;;;;;4985597;28;20077;-51
2022/03/17 05:01:45;;;;;;;4.20;3.05;;;;;;;;;;4986481;28;20022;-51
2022/03/17 05:04:11;;;;;;;5.10;3.50;;;;;;;;;;4984304;28;20030;-51
2022/03/17 05:06:38;;;;;;;5.93;3.28;;;;;;;;;;4985871;28;20092;-52
2022/03/17 05:09:05;;;;;;;5.00;3.67;;;;;;;;;;4985941;28;20549;-53
2022/03/17 05:11:32;;;;;;;6.55;4.03;;;;;;;;;;4985519;28;20038;-52
2022/03/17 05:13:58;;;;;;;7.78;4.20;;;;;;;;;;4985220;28;20065;-52
2022/03/17 05:16:24;;;;;;;4.22;3.13;;;;;;;;;;4984670;28;20076;-53
2022/03/17 05:18:51;;;;;;;5.78;3.63;;;;;;;;;;4985682;28;20105;-52
2022/03/17 05:21:19;;;;;;;6.88;4.57;;;;;;;;;;4985619;28;20077;-52
2022/03/17 05:23:45;;;;;;;6.97;4.10;;;;;;;;;;4985899;28;20544;-53
2022/03/17 05:26:11;;;;;;;8.45;4.57;;;;;;;;;;4985591;28;20034;-52
2022/03/17 05:28:37;;;;;;;7.13;3.80;;;;;;;;;;4985285;28;20037;-50
2022/03/17 05:31:03;;;;;;;5.45;3.65;;;;;;;;;;4984276;28;20084;-52
2022/03/17 05:33:29;;;;;;;7.63;4.40;;;;;;;;;;4984753;28;20030;-51
2022/03/17 05:35:55;;;;;;;9.82;4.28;;;;;;;;;;4985527;28;20037;-53
2022/03/17 05:38:22;;;;;;;5.38;4.15;;;;;;;;;;4984647;28;20022;-51
2022/03/17 05:40:48;;;;;;;5.93;3.92;;;;;;;;;;4985620;28;20508;-53
2022/03/17 05:43:14;;;;;;;9.50;4.93;;;;;;;;;;4985047;28;20026;-52
2022/03/17 05:45:42;;;;;;;6.93;4.00;;;;;;;;;;4985207;28;20041;-53
2022/03/17 05:48:09;;;;;;;7.72;3.88;;;;;;;;;;4984231;28;20030;-52
2022/03/17 05:50:39;;;;;;;4.47;3.45;;;;;;;;;;4985282;28;20074;-51
2022/03/17 05:53:06;;;;;;;5.78;3.83;;;;;;;;;;4985541;28;20030;-53
2022/03/17 05:55:32;;;;;;;6.72;4.13;;;;;;;;;;4985660;28;20065;-52
2022/03/17 05:57:58;;;;;;;6.88;3.65;;;;;;;;;;4968407;28;20497;-53
2022/03/17 06:00:26;;;;;;;6.70;3.83;;;;;;;;;;4985002;28;20029;-52
2022/03/17 06:02:53;;;;;;;5.07;3.42;;;;;;;;;;4984313;28;20031;-52
2022/03/17 06:05:21;;;;;;;8.27;4.10;;;;;;;;;;4985024;28;20609;-53
2022/03/17 06:07:48;;;;;;;7.43;3.80;;;;;;;;;;4985209;28;20030;-52
2022/03/17 06:10:17;;;;;;;7.07;3.30;;;;;;;;;;4984914;28;20123;-53
2022/03/17 06:12:44;;;;;;;5.20;3.00;;;;;;;;;;4985107;28;20026;-52
2022/03/17 06:15:11;;;;;;;4.93;3.05;;;;;;;;;;4985582;28;20030;-52
2022/03/17 06:17:49;;;;;;;5.70;3.75;;;;;;;;;;4983450;28;20442;-52
2022/03/17 06:20:17;;;;;;;8.18;3.38;;;;;;;;;;4984887;28;20031;-52
2022/03/17 06:22:44;;;;;;;5.97;3.33;;;;;;;;;;4984906;28;20034;-50
2022/03/17 06:25:11;;;;;;;7.05;3.80;;;;;;;;;;4985094;28;20030;-53
2022/03/17 06:27:37;;;;;;;6.45;3.47;;;;;;;;;;4983748;28;20030;-50
2022/03/17 06:30:07;;;;;;;4.50;3.20;;;;;;;;;;4985249;28;20125;-50
2022/03/17 06:32:39;;;;;;;6.07;3.17;;;;;;;;;;4984605;28;20030;-50
2022/03/17 06:35:15;;;;;;;4.82;3.35;;;;;;;;;;4985428;28;20088;-50
2022/03/17 06:37:41;;;;;;;5.63;3.10;;;;;;;;;;4983795;28;20026;-52
2022/03/17 06:40:08;;;;;;;3.95;2.88;;;;;;;;;;4984540;28;20470;-51
2022/03/17 06:42:35;;;;;;;5.03;2.97;;;;;;;;;;4985582;28;20597;-50
2022/03/17 06:45:02;;;;;;;3.53;2.83;;;;;;;;;;4987632;28;20399;-52
2022/03/17 06:47:28;;;;;;;5.70;3.63;;;;;;;;;;4987994;28;20041;-52
2022/03/17 06:49:55;;;;;;;4.47;3.17;;;;;;;;;;4988928;28;20041;-50
2022/03/17 06:52:22;;;;;;;7.35;3.70;;;;;;;;;;4987589;28;20022;-53
2022/03/17 06:54:48;;;;;;;5.32;2.97;;;;;;;;;;4988097;28;20027;-52
2022/03/17 06:57:21;;;;;;;6.65;3.78;;;;;;;;;;4987011;28;20486;-52
2022/03/17 06:59:48;;;;;;;7.43;3.92;;;;;;;;;;4988225;28;20639;-53
2022/03/17 07:02:15;;;;;;;7.00;3.63;;;;;;;;;;4988102;28;20505;-52
2022/03/17 07:04:42;;;;;;;6.57;3.90;;;;;;;;;;4988159;28;20025;-53
2022/03/17 07:07:09;;;;;;;6.22;3.63;;;;;;;;;;4987152;28;20030;-52
2022/03/17 07:09:35;;;;;;;8.02;3.85;;;;;;;;;;4987743;28;20033;-53
2022/03/17 07:12:01;;;;;;;7.53;3.72;;;;;;;;;;4989385;28;20110;-53
2022/03/17 07:14:28;;;;;;;4.82;3.30;;;;;;;;;;4988432;28;20457;-53
2022/03/17 07:16:54;;;;;;;7.80;4.55;;;;;;;;;;4975211;28;20046;-52
2022/03/17 07:19:20;;;;;;;8.50;4.25;;;;;;;;;;4988267;28;20089;-53
2022/03/17 07:21:46;;;;;;;9.13;4.40;;;;;;;;;;4989171;28;20026;-52
2022/03/17 07:24:12;;;;;;;9.18;4.75;;;;;;;;;;4989342;28;20031;-51
2022/03/17 07:26:42;;;;;;;8.48;5.07;;;;;;;;;;4988586;28;20034;-52
2022/03/17 07:29:08;;;;;;;7.63;4.10;;;;;;;;;;4989239;28;20146;-52
2022/03/17 07:31:34;;;;;;;6.90;4.15;;;;;;;;;;4989025;28;20093;-52
2022/03/17 07:34:01;;;;;;;10.27;4.20;;;;;;;;;;4988065;28;20534;-53
2022/03/17 07:36:28;;;;;;;7.03;4.40;;;;;;;;;;4987206;28;20023;-52
2022/03/17 07:38:55;;;;;;;5.18;3.65;;;;;;;;;;4988503;28;20026;-53
2022/03/17 07:41:22;;;;;;;6.43;4.00;;;;;;;;;;4988618;28;20101;-52
2022/03/17 07:43:48;;;;;;;6.97;4.00;;;;;;;;;;4987905;28;20038;-51
2022/03/17 07:46:14;;;;;;;9.95;4.07;;;;;;;;;;4988080;28;20041;-53
2022/03/17 07:48:41;;;;;;;7.05;4.28;;;;;;;;;;4987481;28;20033;-53
2022/03/17 07:51:08;;;;;;;7.07;4.28;;;;;;;;;;4986611;28;20018;-53
2022/03/17 07:53:34;;;;;;;6.82;4.07;;;;;;;;;;4987790;28;20122;-52
2022/03/17 07:56:00;;;;;;;5.32;3.60;;;;;;;;;;4988741;28;20092;-52
2022/03/17 07:58:26;;;;;;;5.80;4.18;;;;;;;;;;4988541;28;20106;-53
2022/03/17 08:00:54;;;;;;;4.47;3.35;;;;;;;;;;4987482;28;20026;-52
2022/03/17 08:03:20;;;;;;;5.20;3.40;;;;;;;;;;4990710;28;20410;-54
2022/03/17 08:05:47;;;;;;;7.50;4.30;;;;;;;;;;4988582;28;20105;-52
2022/03/17 08:08:14;;;;;;;8.18;3.80;;;;;;;;;;4988529;28;20030;-52
2022/03/17 08:10:40;;;;;;;4.53;3.55;;;;;;;;;;4988843;28;20041;-52
2022/03/17 08:13:08;;;;;;;5.55;3.42;;;;;;;;;;4987281;28;20405;-52
2022/03/17 08:15:34;;;;;;;6.10;3.45;;;;;;;;;;4987381;28;20034;-54
2022/03/17 08:18:00;;;;;;;5.50;4.00;;;;;;;;;;4988981;28;20053;-53
2022/03/17 08:20:26;;;;;;;6.88;4.78;;;;;;;;;;4988639;28;20512;-50
2022/03/17 08:22:52;;;;;;;6.95;4.93;;;;;;;;;;4988141;28;20034;-52
2022/03/17 08:25:18;;;;;;;6.38;4.38;;;;;;;;;;4983720;28;20042;-52
2022/03/17 08:27:45;;;;;;;6.78;4.10;;;;;;;;;;4991928;28;20035;-53
2022/03/17 08:30:11;;;;;;;6.97;3.95;;;;;;;;;;5001729;28;20378;-53
2022/03/17 08:32:40;;;;;;;5.97;4.30;;;;;;;;;;5006834;28;20139;-54
2022/03/17 08:35:06;;;;;;;4.93;3.60;;;;;;;;;;4988192;28;20034;-52
2022/03/17 08:37:38;;;;;;;4.88;3.75;;;;;;;;;;4988610;28;20030;-52
2022/03/17 08:40:05;;;;;;;8.35;5.40;;;;;;;;;;4986688;28;20422;-54
2022/03/17 08:42:31;;;;;;;8.07;5.40;;;;;;;;;;4988937;28;20672;-53
2022/03/17 08:44:57;;;;;;;10.02;6.53;;;;;;;;;;4988726;28;20528;-53
2022/03/17 08:50:08;;;;;;;13.27;8.02;;;;;;;;;;4985636;28;20046;-53
2022/03/17 08:52:34;;;;;;;14.32;8.45;;;;;;;;;;4983796;28;20026;-52
2022/03/17 08:55:00;;;;;;;12.27;8.00;;;;;;;;;;4988475;28;20464;-53
2022/03/17 08:57:26;;;;;;;8.38;5.95;;;;;;;;;;4986622;28;20570;-53
2022/03/17 08:59:53;;;;;;;8.95;5.50;;;;;;;;;;4986577;28;20402;-53
2022/03/17 09:02:19;;;;;;;7.13;5.32;;;;;;;;;;4987916;28;20026;-53
2022/03/17 09:04:45;;;;;;;8.32;4.93;;;;;;;;;;4987289;28;20514;-53
2022/03/17 09:07:11;;;;;;;5.85;4.80;;;;;;;;;;4984565;28;20501;-53
2022/03/17 09:09:38;;;;;;;6.38;4.45;;;;;;;;;;4986879;28;20038;-52
2022/03/17 09:12:06;;;;;;;6.47;4.18;;;;;;;;;;4987991;28;20101;-53
2022/03/17 09:14:32;;;;;;;5.43;4.32;;;;;;;;;;4987159;28;20436;-53
2022/03/17 09:16:59;;;;;;;6.68;4.70;;;;;;;;;;4987112;28;20418;-53
2022/03/17 09:19:26;;;;;;;6.97;4.75;;;;;;;;;;4986416;28;20109;-51
2022/03/17 09:21:52;;;;;;;5.50;4.05;;;;;;;;;;4985476;28;20022;-53
2022/03/17 09:24:19;;;;;;;6.95;4.28;;;;;;;;;;4987758;28;20069;-52
2022/03/17 09:26:45;;;;;;;7.28;4.20;;;;;;;;;;4986173;28;20510;-52
2022/03/17 09:29:11;;;;;;;5.43;4.05;;;;;;;;;;4986891;28;20038;-53
2022/03/17 09:31:37;;;;;;;5.57;3.85;;;;;;;;;;4985255;28;20026;-52
2022/03/17 09:34:04;;;;;;;7.55;4.15;;;;;;;;;;4986164;28;20038;-54
2022/03/17 09:36:31;;;;;;;7.18;4.30;;;;;;;;;;4986608;28;20120;-51
2022/03/17 09:41:42;;;;;;;6.55;4.10;;;;;;;;;;4985097;28;20036;-53
2022/03/17 09:44:09;;;;;;;6.20;3.63;;;;;;;;;;4983783;28;20034;-53
2022/03/17 09:46:38;;;;;;;8.57;5.35;;;;;;;;;;4985910;28;20056;-52
2022/03/17 09:49:04;;;;;;;8.82;4.82;;;;;;;;;;4985423;28;20061;-53
2022/03/17 09:51:31;;;;;;;8.32;5.03;;;;;;;;;;4986769;28;20026;-53
2022/03/17 09:54:00;;;;;;;6.55;4.00;;;;;;;;;;4985044;28;20034;-52
2022/03/17 09:56:26;;;;;;;4.30;3.40;;;;;;;;;;4986387;28;20505;-52
2022/03/17 09:58:53;;;;;;;6.55;4.50;;;;;;;;;;4986517;28;20438;-53
2022/03/17 10:01:21;;;;;;;4.85;3.05;;;;;;;;;;4973502;28;20034;-53
2022/03/17 10:03:47;;;;;;;4.10;3.10;;;;;;;;;;4967180;28;20062;-53
2022/03/17 10:06:14;;;;;;;4.28;2.90;;;;;;;;;;4966480;28;20038;-53
2022/03/17 10:08:42;;;;;;;4.70;3.60;;;;;;;;;;4967094;28;20061;-53
2022/03/17 10:11:14;;;;;;;4.88;3.10;;;;;;;;;;4967120;28;20030;-52
2022/03/17 10:13:45;;;;;;;4.70;3.28;;;;;;;;;;4986022;28;20030;-53
2022/03/17 10:16:18;;;;;;;3.85;2.88;;;;;;;;;;4985646;28;20018;-53
2022/03/17 10:18:48;;;;;;;8.15;3.20;;;;;;;;;;4989582;28;20241;-53
2022/03/17 10:21:24;;;;;;;6.15;3.70;;;;;;;;;;4989722;28;20722;-54
2022/03/17 10:24:02;;;;;;;8.55;4.22;;;;;;;;;;4989813;28;20120;-54
2022/03/17 10:26:46;;;;;;;6.95;4.07;;;;;;;;;;4989960;28;20022;-53
2022/03/17 10:29:22;;;;;;;9.13;4.03;;;;;;;;;;4990011;28;20069;-54
2022/03/17 10:32:01;;;;;;;7.25;4.40;;;;;;;;;;4989743;28;20065;-53
2022/03/17 10:34:29;;;;;;;8.32;4.70;;;;;;;;;;4989557;28;20026;-49
2022/03/17 10:37:07;;;;;;;5.00;3.08;;;;;;;;;;4988040;28;20029;-53
2022/03/17 10:39:42;;;;;;;4.07;3.20;;;;;;;;;;4990002;28;20486;-53
2022/03/17 10:42:12;;;;;;;6.20;3.40;;;;;;;;;;4989903;28;20014;-52
2022/03/17 10:44:39;;;;;;;3.80;2.97;;;;;;;;;;4988709;28;20035;-53
2022/03/17 10:47:05;;;;;;;8.65;4.05;;;;;;;;;;4989599;28;20438;-54
2022/03/17 10:49:31;;;;;;;10.73;4.60;;;;;;;;;;4989857;28;20034;-53
2022/03/17 10:51:58;;;;;;;10.15;5.55;;;;;;;;;;4989675;28;20057;-52
2022/03/17 10:54:25;;;;;;;7.20;4.28;;;;;;;;;;4987604;28;20035;-54
2022/03/17 10:56:58;;;;;;;9.77;4.82;;;;;;;;;;4969936;28;20027;-52
2022/03/17 10:59:35;;;;;;;7.35;4.95;;;;;;;;;;4987454;28;20454;-53
2022/03/17 11:02:05;;;;;;;6.68;3.95;;;;;;;;;;4989715;28;20077;-53
2022/03/17 11:04:31;;;;;;;6.22;3.78;;;;;;;;;;4977029;28;20105;-53
2022/03/17 11:06:58;;;;;;;8.25;4.32;;;;;;;;;;4989609;28;20413;-52
2022/03/17 11:09:25;;;;;;;5.10;3.55;;;;;;;;;;4990294;28;20030;-52
2022/03/17 11:11:53;;;;;;;6.78;4.40;;;;;;;;;;4990467;28;20030;-53
2022/03/17 11:14:21;;;;;;;7.53;4.07;;;;;;;;;;4989708;28;20125;-52
2022/03/17 11:16:50;;;;;;;6.13;3.78;;;;;;;;;;4989788;28;20030;-52
2022/03/17 11:19:20;;;;;;;8.43;3.80;;;;;;;;;;4988901;28;20498;-52
2022/03/17 11:21:49;;;;;;;7.55;4.35;;;;;;;;;;4990515;28;20019;-53
2022/03/17 11:24:21;;;;;;;6.20;3.38;;;;;;;;;;4986344;28;20101;-53
2022/03/17 11:26:49;;;;;;;5.07;3.17;;;;;;;;;;4970651;28;20502;-50
2022/03/17 11:29:21;;;;;;;5.88;3.13;;;;;;;;;;4972417;28;20233;-52
2022/03/17 11:31:56;;;;;;;4.72;2.95;;;;;;;;;;4987583;28;20046;-52
2022/03/17 11:34:38;;;;;;;5.35;2.90;;;;;;;;;;4973201;28;20026;-53
2022/03/17 11:37:20;;;;;;;4.88;3.45;;;;;;;;;;4989421;28;20028;-52
2022/03/17 11:40:03;;;;;;;4.40;2.80;;;;;;;;;;4990096;28;20679;-52
2022/03/17 11:42:33;;;;;;;8.32;4.10;;;;;;;;;;4988908;28;20089;-52
2022/03/17 11:45:03;;;;;;;5.97;3.38;;;;;;;;;;4988282;28;20125;-53
2022/03/17 11:47:36;;;;;;;5.18;3.60;;;;;;;;;;4988744;28;20034;-51
2022/03/17 11:50:21;;;;;;;4.50;3.05;;;;;;;;;;4990137;28;20023;-52
2022/03/17 11:52:57;;;;;;;6.32;4.28;;;;;;;;;;4989024;28;20030;-54
2022/03/17 11:55:36;;;;;;;7.32;4.68;;;;;;;;;;4987713;28;20037;-52
2022/03/17 11:58:23;;;;;;;6.75;4.30;;;;;;;;;;4988420;28;20030;-52
2022/03/17 12:01:11;;;;;;;6.07;4.15;;;;;;;;;;4988199;28;20030;-51
2022/03/17 12:03:38;;;;;;;5.22;3.65;;;;;;;;;;4988692;28;20037;-50
2022/03/17 12:06:05;;;;;;;4.40;3.22;;;;;;;;;;4978127;28;20026;-52
2022/03/17 12:08:38;;;;;;;4.25;3.40;;;;;;;;;;4985854;28;20038;-52
2022/03/17 12:11:13;;;;;;;5.88;3.40;;;;;;;;;;4988253;28;20030;-50
2022/03/17 12:13:39;;;;;;;5.07;3.10;;;;;;;;;;4989007;28;20095;-52
2022/03/17 12:16:05;;;;;;;6.45;3.10;;;;;;;;;;4988695;28;20026;-53
2022/03/17 12:18:51;;;;;;;4.03;3.10;;;;;;;;;;4988397;28;20053;-51
2022/03/17 12:21:18;;;;;;;7.53;3.40;;;;;;;;;;4987615;28;20112;-52
2022/03/17 12:23:49;;;;;;;4.47;3.13;;;;;;;;;;4988222;28;20579;-51
2022/03/17 12:26:20;;;;;;;5.30;3.00;;;;;;;;;;4986955;28;20247;-52
2022/03/17 12:28:46;;;;;;;3.92;2.70;;;;;;;;;;4986537;28;20093;-52
2022/03/17 12:31:12;;;;;;;3.13;2.47;;;;;;;;;;4987789;28;20482;-50
2022/03/17 12:33:39;;;;;;;4.38;3.22;;;;;;;;;;4988045;28;20092;-52
2022/03/17 12:36:06;;;;;;;3.97;2.42;;;;;;;;;;4987227;28;20315;-49
2022/03/17 12:38:37;;;;;;;4.10;3.00;;;;;;;;;;4986896;28;20025;-52
2022/03/17 12:41:10;;;;;;;4.45;2.70;;;;;;;;;;4986595;28;20036;-52
2022/03/17 12:43:36;;;;;;;7.82;3.50;;;;;;;;;;4986247;28;20038;-52
2022/03/17 12:46:04;;;;;;;6.30;3.75;;;;;;;;;;4984300;28;20383;-49
2022/03/17 12:48:31;;;;;;;5.38;3.67;;;;;;;;;;4981853;28;20479;-51
2022/03/17 12:51:05;;;;;;;3.92;2.85;;;;;;;;;;4987070;28;20031;-51
2022/03/17 12:53:31;;;;;;;;;;;;;;;;;;4988551;28;20042;-51
2022/03/17 12:55:57;;;;;;;9.82;5.60;;;;;;;;;;4987714;28;19905;-50
2022/03/17 12:58:24;;;;;;;8.32;5.40;;;;;;;;;;4987180;28;20022;-52
2022/03/17 13:00:50;;;;;;;6.72;4.82;;;;;;;;;;4987393;28;20049;-49
2022/03/17 13:03:17;;;;;;;6.75;4.75;;;;;;;;;;4970126;28;20034;-52
2022/03/17 13:08:36;;;;;;;13.55;7.05;;;;;;;;;;4984426;28;20050;-52
2022/03/17 13:16:33;;;;;;;12.18;7.68;;;;;;;;;;4986454;28;20393;-52
2022/03/17 13:18:59;;;;;;;11.38;7.70;;;;;;;;;;4986337;28;20015;-53
2022/03/17 13:21:25;;;;;;;16.13;9.02;;;;;;;;;;4985222;28;20548;-53
2022/03/17 13:23:52;;;;;;;13.63;7.65;;;;;;;;;;4986286;28;20030;-53
2022/03/17 13:26:22;;;;;;;12.63;7.72;;;;;;;;;;4986664;28;20037;-49
2022/03/17 13:29:04;;;;;;;13.30;8.27;;;;;;;;;;4980008;28;20025;-53
2022/03/17 13:31:33;;;;;;;16.13;9.27;;;;;;;;;;4985968;28;20033;-53
2022/03/17 13:33:59;;;;;;;14.48;9.02;;;;;;;;;;4985944;28;20022;-52
2022/03/17 13:36:45;;;;;;;15.10;9.90;;;;;;;;;;4985691;28;20121;-53
2022/03/17 13:39:11;;;;;;;22.42;12.20;;;;;;;;;;4987014;28;20560;-54
2022/03/17 13:41:37;;;;;;;19.60;11.57;;;;;;;;;;4987055;28;20022;-56
2022/03/17 13:44:04;;;;;;;19.58;12.10;;;;;;;;;;4986501;28;20034;-53
2022/03/17 13:46:41;;;;;;;24.92;13.98;;;;;;;;;;4986473;28;20038;-51
2022/03/17 13:49:16;;;;;;;19.65;11.88;;;;;;;;;;4985653;28;20034;-51
2022/03/17 13:51:43;;;;;;;17.83;12.05;;;;;;;;;;4985464;28;20038;-53
2022/03/17 13:54:09;;;;;;;21.13;13.43;;;;;;;;;;4985931;28;20026;-50
2022/03/17 13:56:38;;;;;;;21.52;12.82;;;;;;;;;;4977039;28;20026;-51
2022/03/17 13:59:05;;;;;;;18.40;12.25;;;;;;;;;;4986783;28;20445;-51
2022/03/17 14:01:31;;;;;;;16.98;11.73;;;;;;;;;;4982841;28;20034;-52
2022/03/17 14:04:02;;;;;;;15.40;11.43;;;;;;;;;;4985019;28;20034;-51
2022/03/17 14:06:32;;;;;;;19.20;11.82;;;;;;;;;;4985033;28;20046;-51
2022/03/17 14:09:01;;;;;;;17.23;10.85;;;;;;;;;;4987399;28;20030;-51
2022/03/17 14:11:29;;;;;;;13.73;9.27;;;;;;;;;;4986297;28;20034;-49
2022/03/17 14:14:13;;;;;;;18.92;10.00;;;;;;;;;;4983740;28;20490;-50
2022/03/17 14:16:40;;;;;;;17.90;10.85;;;;;;;;;;4983337;28;20471;-51
2022/03/17 14:19:07;;;;;;;17.58;10.52;;;;;;;;;;4986062;28;20022;-51
2022/03/17 14:21:34;;;;;;;20.27;12.55;;;;;;;;;;4985730;28;20023;-49
2022/03/17 14:24:13;;;;;;;20.38;12.80;;;;;;;;;;4991793;28;20109;-51
2022/03/17 14:26:42;;;;;;;14.80;10.60;;;;;;;;;;4993959;28;20030;-50
2022/03/17 14:29:09;;;;;;;19.85;12.80;;;;;;;;;;4986414;28;20026;-51
2022/03/17 14:31:40;;;;;;;18.90;12.00;;;;;;;;;;4985298;28;20031;-49
2022/03/17 14:34:07;;;;;;;17.27;10.60;;;;;;;;;;4966825;28;20046;-51
2022/03/17 14:36:35;;;;;;;17.00;11.43;;;;;;;;;;4966884;28;20031;-51
2022/03/17 14:39:04;;;;;;;12.60;8.73;;;;;;;;;;4984379;28;20087;-51
2022/03/17 14:41:30;;;;;;;12.88;8.48;;;;;;;;;;4988017;28;20034;-51
2022/03/17 14:43:57;;;;;;;11.85;7.70;;;;;;;;;;4985382;28;20069;-48
2022/03/17 14:46:27;;;;;;;13.30;8.52;;;;;;;;;;4985641;28;20072;-51
2022/03/17 14:49:00;;;;;;;15.23;9.40;;;;;;;;;;4985284;28;20034;-48
2022/03/17 14:51:27;;;;;;;14.93;10.07;;;;;;;;;;4984789;28;20104;-51
2022/03/17 14:53:54;;;;;;;13.57;8.63;;;;;;;;;;4986082;28;20446;-47
2022/03/17 14:56:21;;;;;;;11.38;7.95;;;;;;;;;;4983882;28;20034;-50
2022/03/17 14:58:51;;;;;;;11.05;7.78;;;;;;;;;;4986247;28;20038;-52
2022/03/17 15:01:18;;;;;;;13.73;8.73;;;;;;;;;;4985443;28;20038;-51
2022/03/17 15:03:46;;;;;;;15.80;9.93;;;;;;;;;;4968304;28;20018;-53
2022/03/17 15:06:14;;;;;;;12.30;8.00;;;;;;;;;;4989574;28;20050;-53
2022/03/17 15:08:41;;;;;;;10.30;7.18;;;;;;;;;;4990493;28;20062;-53
2022/03/17 15:11:07;;;;;;;12.05;7.55;;;;;;;;;;4987825;28;20034;-52